Time;durP1;ratioP1;P1;durP2;ratioP2;P2;SDS_P1;SDS_P2;PMS_P1;PMS_P2;Temp;Humidity;BMP_temperature;BMP_pressure;BME280_temperature;BME280_humidity;BME280_pressure;Samples;Min_cycle;Max_cycle;Signal;HPM_P1;HPM_P2
2023/12/03 00:00:07;;;;;;;;;;;0.30;99.90;;;;;;5028889;28;19956;-75
2023/12/03 00:02:33;;;;;;;;;;;0.30;99.90;;;;;;5016732;28;19910;-75
2023/12/03 00:04:59;;;;;;;;;;;0.20;99.90;;;;;;5016300;28;19964;-75
2023/12/03 00:07:24;;;;;;;;;;;0.20;99.90;;;;;;5016346;28;19979;-76
2023/12/03 00:09:50;;;;;;;;;;;0.20;99.90;;;;;;5016532;28;19918;-76
2023/12/03 00:12:16;;;;;;;;;;;0.20;99.90;;;;;;5010496;28;19968;-75
2023/12/03 00:14:41;;;;;;;;;;;0.20;99.90;;;;;;4995310;28;19956;-75
2023/12/03 00:17:07;;;;;;;;;;;0.20;99.90;;;;;;4996908;28;19918;-75
2023/12/03 00:19:33;;;;;;;;;;;0.30;99.90;;;;;;5013570;28;19918;-75
2023/12/03 00:21:58;;;;;;;;;;;0.30;99.90;;;;;;5008604;28;19921;-75
2023/12/03 00:24:24;;;;;;;;;;;0.30;99.90;;;;;;5008849;28;20296;-76
2023/12/03 00:26:49;;;;;;;;;;;0.40;99.90;;;;;;4996853;28;19936;-75
2023/12/03 00:29:15;;;;;;;;;;;0.40;99.90;;;;;;5014717;28;19956;-75
2023/12/03 00:31:40;;;;;;;;;;;0.40;99.90;;;;;;5016237;28;19913;-76
2023/12/03 00:34:06;;;;;;;;;;;0.40;99.90;;;;;;5015746;28;19921;-76
2023/12/03 00:36:32;;;;;;;;;;;0.40;99.90;;;;;;5002564;28;19979;-76
2023/12/03 00:38:57;;;;;;;;;;;0.40;99.90;;;;;;4996261;28;19917;-76
2023/12/03 00:41:23;;;;;;;;;;;0.50;99.90;;;;;;4996312;28;20005;-76
2023/12/03 00:43:49;;;;;;;;;;;0.50;99.90;;;;;;4996171;28;20365;-76
2023/12/03 00:46:21;;;;;;;;;;;0.50;99.90;;;;;;4995941;28;19932;-76
2023/12/03 00:48:46;;;;;;;;;;;0.50;99.90;;;;;;5007650;28;19910;-76
2023/12/03 00:51:12;;;;;;;;;;;0.50;99.90;;;;;;5006760;28;19913;-75
2023/12/03 00:53:38;;;;;;;;;;;0.50;99.90;;;;;;4995958;28;19918;-75
2023/12/03 00:56:04;;;;;;;;;;;0.60;99.90;;;;;;5004220;28;19910;-75
2023/12/03 00:58:29;;;;;;;;;;;0.60;99.90;;;;;;5015284;28;19945;-75
2023/12/03 01:00:54;;;;;;;;;;;0.60;99.90;;;;;;5015419;28;19917;-76
2023/12/03 01:03:20;;;;;;;;;;;0.60;99.90;;;;;;5014339;28;20457;-75
2023/12/03 01:05:45;;;;;;;;;;;0.60;99.90;;;;;;5015519;28;19910;-76
2023/12/03 01:08:11;;;;;;;;;;;0.60;99.90;;;;;;5015199;28;19916;-75
2023/12/03 01:10:36;;;;;;;;;;;0.60;99.90;;;;;;5014945;28;19916;-75
2023/12/03 01:13:02;;;;;;;;;;;0.70;99.90;;;;;;5014057;28;19910;-76
2023/12/03 01:15:27;;;;;;;;;;;0.60;99.90;;;;;;5029347;28;20388;-76
2023/12/03 01:17:53;;;;;;;;;;;0.60;99.90;;;;;;5015157;28;20366;-75
2023/12/03 01:20:18;;;;;;;;;;;0.60;99.90;;;;;;5014956;28;19922;-76
2023/12/03 01:22:44;;;;;;;;;;;0.60;99.90;;;;;;5008655;28;20361;-75
2023/12/03 01:25:10;;;;;;;;;;;0.50;99.90;;;;;;5014862;28;19921;-76
2023/12/03 01:27:35;;;;;;;;;;;0.60;99.90;;;;;;4999676;28;19917;-76
2023/12/03 01:30:01;;;;;;;;;;;0.60;99.90;;;;;;4995300;28;19909;-76
2023/12/03 01:32:26;;;;;;;;;;;0.50;99.90;;;;;;4994953;28;19926;-76
2023/12/03 01:34:52;;;;;;;;;;;0.50;99.90;;;;;;4995209;28;19969;-76
2023/12/03 01:37:18;;;;;;;;;;;0.50;99.90;;;;;;5005289;28;19909;-75
2023/12/03 01:39:44;;;;;;;;;;;0.40;99.90;;;;;;5014728;28;19956;-76
2023/12/03 01:42:09;;;;;;;;;;;0.50;99.90;;;;;;5014660;28;19932;-76
2023/12/03 01:44:35;;;;;;;;;;;0.40;99.90;;;;;;5014848;28;19932;-76
2023/12/03 01:47:01;;;;;;;;;;;0.40;99.90;;;;;;5014510;28;19913;-75
2023/12/03 01:49:26;;;;;;;;;;;0.40;99.90;;;;;;5007881;28;19914;-76
2023/12/03 01:51:52;;;;;;;;;;;0.40;99.90;;;;;;5018823;28;20399;-76
2023/12/03 01:54:17;;;;;;;;;;;0.40;99.90;;;;;;4994721;28;20008;-76
2023/12/03 01:56:43;;;;;;;;;;;0.40;99.90;;;;;;5023460;28;19913;-76
2023/12/03 01:59:09;;;;;;;;;;;0.50;99.90;;;;;;5014452;28;20386;-75
2023/12/03 02:01:35;;;;;;;;;;;0.40;99.90;;;;;;5014294;28;19932;-76
2023/12/03 02:04:01;;;;;;;;;;;0.40;99.90;;;;;;5014024;28;20396;-75
2023/12/03 02:06:26;;;;;;;;;;;0.40;99.90;;;;;;5014187;28;20293;-76
2023/12/03 02:08:52;;;;;;;;;;;0.40;99.90;;;;;;5014079;28;19917;-76
2023/12/03 02:11:18;;;;;;;;;;;0.50;99.90;;;;;;5014262;28;19917;-75
2023/12/03 02:13:43;;;;;;;;;;;0.50;99.90;;;;;;5014009;28;19956;-76
2023/12/03 02:16:09;;;;;;;;;;;0.50;99.90;;;;;;5013878;28;19910;-76
2023/12/03 02:18:35;;;;;;;;;;;0.60;99.90;;;;;;5014207;28;19951;-75
2023/12/03 02:21:00;;;;;;;;;;;0.60;99.90;;;;;;5011955;28;19918;-77
2023/12/03 02:23:30;;;;;;;;;;;0.60;99.90;;;;;;5016875;28;19910;-75
2023/12/03 02:25:55;;;;;;;;;;;0.60;99.90;;;;;;4994228;28;20024;-75
2023/12/03 02:28:21;;;;;;;;;;;0.60;99.90;;;;;;5005677;28;19952;-75
2023/12/03 02:30:46;;;;;;;;;;;0.70;99.90;;;;;;5013639;28;20270;-76
2023/12/03 02:33:12;;;;;;;;;;;0.70;99.90;;;;;;5004602;28;19928;-76
2023/12/03 02:35:37;;;;;;;;;;;0.70;99.90;;;;;;4994172;28;19910;-75
2023/12/03 02:38:03;;;;;;;;;;;0.70;99.90;;;;;;5012881;28;20402;-76
2023/12/03 02:40:35;;;;;;;;;;;0.80;99.90;;;;;;5013625;28;19910;-76
2023/12/03 02:43:00;;;;;;;;;;;0.80;99.90;;;;;;5013700;28;19909;-75
2023/12/03 02:45:26;;;;;;;;;;;0.90;99.90;;;;;;5013592;28;19944;-76
2023/12/03 02:47:51;;;;;;;;;;;0.90;99.90;;;;;;5013816;28;19914;-76
2023/12/03 02:50:17;;;;;;;;;;;1.00;99.90;;;;;;5005421;28;19937;-75
2023/12/03 02:52:42;;;;;;;;;;;1.00;99.90;;;;;;4996621;28;19933;-75
2023/12/03 02:55:08;;;;;;;;;;;1.00;99.90;;;;;;5004954;28;19913;-75
2023/12/03 02:57:37;;;;;;;;;;;1.10;99.90;;;;;;5013863;28;19974;-76
2023/12/03 03:00:06;;;;;;;;;;;1.10;99.90;;;;;;5013639;28;20364;-76
2023/12/03 03:02:35;;;;;;;;;;;1.10;99.90;;;;;;5013720;28;20004;-75
2023/12/03 03:05:01;;;;;;;;;;;1.10;99.90;;;;;;5012401;28;19920;-75
2023/12/03 03:07:27;;;;;;;;;;;1.10;99.90;;;;;;5013734;28;20372;-75
2023/12/03 03:09:52;;;;;;;;;;;1.10;99.90;;;;;;5013433;28;19920;-76
2023/12/03 03:12:18;;;;;;;;;;;1.10;99.90;;;;;;5006012;28;19910;-76
2023/12/03 03:14:43;;;;;;;;;;;1.10;99.90;;;;;;4993910;28;20021;-75
2023/12/03 03:17:09;;;;;;;;;;;1.10;99.90;;;;;;4993710;28;19921;-75
2023/12/03 03:19:34;;;;;;;;;;;1.10;99.90;;;;;;5011099;28;20368;-75
2023/12/03 03:22:00;;;;;;;;;;;1.10;99.90;;;;;;5011885;28;19956;-75
2023/12/03 03:24:25;;;;;;;;;;;1.10;99.90;;;;;;5008108;28;19920;-77
2023/12/03 03:26:51;;;;;;;;;;;1.10;99.90;;;;;;5004434;28;19914;-77
2023/12/03 03:29:17;;;;;;;;;;;1.20;99.90;;;;;;4995539;28;19910;-75
2023/12/03 03:31:42;;;;;;;;;;;1.10;99.90;;;;;;5001120;28;19917;-76
2023/12/03 03:34:08;;;;;;;;;;;1.10;99.90;;;;;;4993554;28;19955;-75
2023/12/03 03:36:33;;;;;;;;;;;1.10;99.90;;;;;;4996998;28;19916;-76
2023/12/03 03:38:59;;;;;;;;;;;1.10;99.90;;;;;;4997472;28;20292;-76
2023/12/03 03:41:24;;;;;;;;;;;1.00;99.90;;;;;;4997427;28;19960;-75
2023/12/03 03:43:50;;;;;;;;;;;1.00;99.90;;;;;;4997262;28;19910;-75
2023/12/03 03:46:15;;;;;;;;;;;1.10;99.90;;;;;;4997156;28;20369;-75
2023/12/03 03:48:41;;;;;;;;;;;1.10;99.90;;;;;;5008357;28;19918;-76
2023/12/03 03:51:06;;;;;;;;;;;1.00;99.90;;;;;;5005613;28;20000;-76
2023/12/03 03:53:32;;;;;;;;;;;1.00;99.90;;;;;;5032008;28;20357;-76
2023/12/03 03:55:57;;;;;;;;;;;1.10;99.90;;;;;;5016432;28;19916;-76
2023/12/03 03:58:23;;;;;;;;;;;1.10;99.90;;;;;;5016617;28;20459;-75
2023/12/03 04:00:49;;;;;;;;;;;1.10;99.90;;;;;;5015812;28;20000;-75
2023/12/03 04:03:15;;;;;;;;;;;1.10;99.90;;;;;;5016888;28;20419;-76
2023/12/03 04:05:40;;;;;;;;;;;1.20;99.90;;;;;;5016644;28;19920;-76
2023/12/03 04:08:06;;;;;;;;;;;1.20;99.90;;;;;;5016049;28;19910;-75
2023/12/03 04:10:31;;;;;;;;;;;1.20;99.90;;;;;;5016432;28;19915;-75
2023/12/03 04:12:57;;;;;;;;;;;1.20;99.90;;;;;;5005073;28;20297;-75
2023/12/03 04:15:22;;;;;;;;;;;1.30;99.90;;;;;;4995455;28;19961;-75
2023/12/03 04:17:48;;;;;;;;;;;1.20;99.90;;;;;;4999692;28;19913;-76
2023/12/03 04:20:13;;;;;;;;;;;1.20;99.90;;;;;;5016111;28;20288;-75
2023/12/03 04:22:40;;;;;;;;;;;1.30;99.90;;;;;;5009552;28;20391;-76
2023/12/03 04:25:06;;;;;;;;;;;1.20;99.90;;;;;;4996850;28;20288;-75
2023/12/03 04:27:32;;;;;;;;;;;1.20;99.90;;;;;;5001017;28;19949;-76
2023/12/03 04:29:57;;;;;;;;;;;1.20;99.90;;;;;;5016084;28;19944;-76
2023/12/03 04:32:23;;;;;;;;;;;1.10;99.90;;;;;;5012882;28;19932;-76
2023/12/03 04:34:48;;;;;;;;;;;1.10;99.90;;;;;;5019994;28;19914;-76
2023/12/03 04:37:14;;;;;;;;;;;1.10;99.90;;;;;;4996309;28;19997;-75
2023/12/03 04:39:42;;;;;;;;;;;1.10;99.90;;;;;;4996583;28;19914;-76
2023/12/03 04:42:07;;;;;;;;;;;1.10;99.90;;;;;;5010022;28;20296;-76
2023/12/03 04:44:33;;;;;;;;;;;1.10;99.90;;;;;;4996279;28;19910;-76
2023/12/03 04:46:58;;;;;;;;;;;1.10;99.90;;;;;;5015759;28;19909;-75
2023/12/03 04:49:24;;;;;;;;;;;1.10;99.90;;;;;;5009894;28;19957;-75
2023/12/03 04:51:50;;;;;;;;;;;1.10;99.90;;;;;;5004694;28;19909;-75
2023/12/03 04:54:15;;;;;;;;;;;1.10;99.90;;;;;;4995504;28;19940;-76
2023/12/03 04:56:41;;;;;;;;;;;1.10;99.90;;;;;;5008591;28;19914;-76
2023/12/03 04:59:07;;;;;;;;;;;1.00;99.90;;;;;;5015480;28;20388;-75
2023/12/03 05:01:32;;;;;;;;;;;1.00;99.90;;;;;;5015653;28;19921;-76
2023/12/03 05:03:58;;;;;;;;;;;1.00;99.90;;;;;;5015428;28;19910;-75
2023/12/03 05:06:23;;;;;;;;;;;1.00;99.90;;;;;;5015325;28;20276;-76
2023/12/03 05:08:49;;;;;;;;;;;1.00;99.90;;;;;;5015435;28;19913;-75
2023/12/03 05:11:14;;;;;;;;;;;0.90;99.90;;;;;;5015115;28;19931;-75
2023/12/03 05:13:40;;;;;;;;;;;0.90;99.90;;;;;;4997963;28;19914;-75
2023/12/03 05:16:06;;;;;;;;;;;0.90;99.90;;;;;;4995864;28;19910;-76
2023/12/03 05:18:32;;;;;;;;;;;0.90;99.90;;;;;;5004623;28;20008;-75
2023/12/03 05:20:57;;;;;;;;;;;0.90;99.90;;;;;;5012664;28;19918;-76
2023/12/03 05:23:23;;;;;;;;;;;0.90;99.90;;;;;;5014431;28;20287;-76
2023/12/03 05:25:49;;;;;;;;;;;1.00;99.90;;;;;;5015357;28;19963;-75
2023/12/03 05:28:14;;;;;;;;;;;1.00;99.90;;;;;;5004255;28;20004;-75
2023/12/03 05:30:40;;;;;;;;;;;1.00;99.90;;;;;;5007288;28;19913;-75
2023/12/03 05:33:05;;;;;;;;;;;1.00;99.90;;;;;;5014590;28;20012;-76
2023/12/03 05:35:31;;;;;;;;;;;1.00;99.90;;;;;;5029793;28;19924;-76
2023/12/03 05:37:56;;;;;;;;;;;1.00;99.90;;;;;;5014801;28;19917;-75
2023/12/03 05:40:22;;;;;;;;;;;1.00;99.90;;;;;;4995417;28;19910;-75
2023/12/03 05:42:47;;;;;;;;;;;1.00;99.90;;;;;;5001178;28;20377;-75
2023/12/03 05:45:13;;;;;;;;;;;1.00;99.90;;;;;;5014669;28;19910;-75
2023/12/03 05:47:40;;;;;;;;;;;1.00;99.90;;;;;;5014411;28;19914;-76
2023/12/03 05:50:06;;;;;;;;;;;1.00;99.90;;;;;;5007672;28;19910;-76
2023/12/03 05:52:32;;;;;;;;;;;1.00;99.90;;;;;;5006381;28;19913;-75
2023/12/03 05:54:57;;;;;;;;;;;1.10;99.90;;;;;;4998894;28;19921;-75
2023/12/03 05:57:23;;;;;;;;;;;1.10;99.90;;;;;;5013368;28;19916;-75
2023/12/03 05:59:49;;;;;;;;;;;1.10;99.90;;;;;;5012757;28;19910;-76
2023/12/03 06:02:15;;;;;;;;;;;1.10;99.90;;;;;;5004676;28;19957;-76
2023/12/03 06:04:40;;;;;;;;;;;1.10;99.90;;;;;;5009004;28;19976;-75
2023/12/03 06:07:06;;;;;;;;;;;1.10;99.90;;;;;;5014375;28;19916;-75
2023/12/03 06:09:32;;;;;;;;;;;1.10;99.90;;;;;;5014154;28;19949;-75
2023/12/03 06:11:57;;;;;;;;;;;1.10;99.90;;;;;;5014113;28;19914;-76
2023/12/03 06:14:23;;;;;;;;;;;1.10;99.90;;;;;;5013968;28;19914;-76
2023/12/03 06:16:48;;;;;;;;;;;1.10;99.90;;;;;;5014313;28;19917;-75
2023/12/03 06:19:14;;;;;;;;;;;1.10;99.90;;;;;;5014056;28;19922;-75
2023/12/03 06:21:39;;;;;;;;;;;1.10;99.90;;;;;;5008412;28;19917;-75
2023/12/03 06:24:05;;;;;;;;;;;1.10;99.90;;;;;;4994741;28;19920;-75
2023/12/03 06:26:31;;;;;;;;;;;1.20;99.90;;;;;;5011413;28;20406;-76
2023/12/03 06:28:57;;;;;;;;;;;1.10;99.90;;;;;;5027825;28;19917;-76
2023/12/03 06:31:22;;;;;;;;;;;1.10;99.90;;;;;;5013576;28;20395;-77
2023/12/03 06:33:48;;;;;;;;;;;1.10;99.90;;;;;;5003409;28;20012;-75
2023/12/03 06:36:13;;;;;;;;;;;1.10;99.90;;;;;;5013077;28;19916;-75
2023/12/03 06:38:39;;;;;;;;;;;1.20;99.90;;;;;;5013828;28;19909;-76
2023/12/03 06:41:04;;;;;;;;;;;1.20;99.90;;;;;;5028816;28;19944;-76
2023/12/03 06:43:30;;;;;;;;;;;1.20;99.90;;;;;;5028883;28;19933;-75
2023/12/03 06:45:57;;;;;;;;;;;1.20;99.90;;;;;;5013626;28;19957;-75
2023/12/03 06:48:23;;;;;;;;;;;1.20;99.90;;;;;;5012939;28;19910;-75
2023/12/03 06:50:49;;;;;;;;;;;1.20;99.90;;;;;;5005752;28;19913;-76
2023/12/03 06:53:14;;;;;;;;;;;1.20;99.90;;;;;;4994252;28;19917;-77
2023/12/03 06:55:40;;;;;;;;;;;1.30;99.90;;;;;;4999199;28;19909;-75
2023/12/03 06:58:05;;;;;;;;;;;1.30;99.90;;;;;;5013651;28;19909;-75
2023/12/03 07:00:31;;;;;;;;;;;1.30;99.90;;;;;;5011812;28;20287;-75
2023/12/03 07:02:56;;;;;;;;;;;1.30;99.90;;;;;;5011202;28;19914;-75
2023/12/03 07:05:22;;;;;;;;;;;1.30;99.90;;;;;;5012675;28;19913;-77
2023/12/03 07:07:51;;;;;;;;;;;1.30;99.90;;;;;;5012120;28;19910;-77
2023/12/03 07:10:17;;;;;;;;;;;1.20;99.90;;;;;;5014583;28;19909;-75
2023/12/03 07:12:43;;;;;;;;;;;1.30;99.90;;;;;;5017467;28;19935;-75
2023/12/03 07:15:08;;;;;;;;;;;1.30;99.90;;;;;;5017416;28;20363;-75
2023/12/03 07:17:34;;;;;;;;;;;1.30;99.90;;;;;;5017431;28;19910;-76
2023/12/03 07:19:59;;;;;;;;;;;1.30;99.90;;;;;;5017344;28;19921;-76
2023/12/03 07:22:25;;;;;;;;;;;1.30;99.90;;;;;;5007772;28;19967;-75
2023/12/03 07:24:52;;;;;;;;;;;1.30;99.90;;;;;;5001094;28;20394;-75
2023/12/03 07:27:18;;;;;;;;;;;1.40;99.90;;;;;;5013616;28;19999;-76
2023/12/03 07:29:44;;;;;;;;;;;1.40;99.90;;;;;;5009097;28;19961;-75
2023/12/03 07:32:09;;;;;;;;;;;1.40;99.90;;;;;;5015441;28;19921;-76
2023/12/03 07:34:35;;;;;;;;;;;1.40;99.90;;;;;;5016915;28;19922;-76
2023/12/03 07:37:01;;;;;;;;;;;1.30;99.90;;;;;;5009418;28;20008;-76
2023/12/03 07:39:26;;;;;;;;;;;1.40;99.90;;;;;;5010330;28;19936;-76
2023/12/03 07:41:52;;;;;;;;;;;1.30;99.90;;;;;;5015643;28;20376;-76
2023/12/03 07:44:19;;;;;;;;;;;1.30;99.90;;;;;;5016803;28;19964;-76
2023/12/03 07:46:44;;;;;;;;;;;1.40;99.90;;;;;;5017091;28;19910;-75
2023/12/03 07:49:10;;;;;;;;;;;1.40;99.90;;;;;;5011154;28;20002;-75
2023/12/03 07:51:35;;;;;;;;;;;1.40;99.90;;;;;;5005779;28;19917;-76
2023/12/03 07:54:01;;;;;;;;;;;1.40;99.90;;;;;;5014193;28;19956;-76
2023/12/03 07:56:36;;;;;;;;;;;1.50;99.90;;;;;;5011231;28;20799;-75
2023/12/03 07:59:02;;;;;;;;;;;1.50;99.90;;;;;;5016508;28;20012;-77
2023/12/03 08:01:27;;;;;;;;;;;1.50;99.90;;;;;;5016575;28;19952;-76
2023/12/03 08:03:53;;;;;;;;;;;1.50;99.90;;;;;;5016377;28;19909;-77
2023/12/03 08:06:18;;;;;;;;;;;1.60;99.90;;;;;;5016699;28;20048;-76
2023/12/03 08:08:44;;;;;;;;;;;1.70;99.90;;;;;;5016678;28;19910;-75
2023/12/03 08:11:09;;;;;;;;;;;1.80;99.90;;;;;;5016393;28;19909;-75
2023/12/03 08:13:35;;;;;;;;;;;1.80;99.90;;;;;;4999793;28;19937;-76
2023/12/03 08:16:01;;;;;;;;;;;1.90;99.90;;;;;;5000478;28;20280;-77
2023/12/03 08:18:27;;;;;;;;;;;1.90;99.90;;;;;;5016419;28;20361;-77
2023/12/03 08:20:52;;;;;;;;;;;1.90;99.90;;;;;;5011938;28;19925;-77
2023/12/03 08:23:18;;;;;;;;;;;1.90;99.90;;;;;;5007876;28;19914;-75
2023/12/03 08:25:43;;;;;;;;;;;1.80;99.90;;;;;;5016122;28;19971;-75
2023/12/03 08:28:09;;;;;;;;;;;1.80;99.90;;;;;;5014802;28;19963;-76
2023/12/03 08:30:34;;;;;;;;;;;1.90;99.90;;;;;;5015460;28;20009;-76
2023/12/03 08:33:00;;;;;;;;;;;2.10;99.90;;;;;;5010799;28;20305;-76
2023/12/03 08:35:26;;;;;;;;;;;2.30;99.90;;;;;;5007642;28;19913;-75
2023/12/03 08:37:51;;;;;;;;;;;2.60;99.90;;;;;;5015996;28;19921;-77
2023/12/03 08:40:17;;;;;;;;;;;2.60;99.90;;;;;;5015770;28;19914;-77
2023/12/03 08:42:44;;;;;;;;;;;2.60;99.90;;;;;;5015901;28;19910;-77
2023/12/03 08:45:09;;;;;;;;;;;2.60;99.90;;;;;;5015666;28;19910;-77
2023/12/03 08:47:35;;;;;;;;;;;2.60;99.90;;;;;;5015699;28;19917;-76
2023/12/03 08:50:00;;;;;;;;;;;2.70;99.90;;;;;;5008210;28;19920;-75
2023/12/03 08:52:26;;;;;;;;;;;2.80;99.90;;;;;;5009254;28;19920;-76
2023/12/03 08:54:51;;;;;;;;;;;2.90;99.90;;;;;;5013558;28;19914;-77
2023/12/03 08:57:17;;;;;;;;;;;2.90;99.90;;;;;;5011803;28;20300;-76
2023/12/03 08:59:42;;;;;;;;;;;3.00;99.90;;;;;;4995875;28;19909;-77
2023/12/03 09:02:08;;;;;;;;;;;3.00;99.90;;;;;;4997457;28;19910;-76
2023/12/03 09:04:36;;;;;;;;;;;3.10;99.90;;;;;;5009616;28;19941;-75
2023/12/03 09:07:01;;;;;;;;;;;3.20;99.90;;;;;;5015642;28;19963;-77
2023/12/03 09:09:27;;;;;;;;;;;3.30;99.90;;;;;;5007528;28;20376;-77
2023/12/03 09:11:52;;;;;;;;;;;3.30;99.90;;;;;;5003582;28;20008;-77
2023/12/03 09:14:18;;;;;;;;;;;3.40;99.90;;;;;;5015147;28;19917;-75
2023/12/03 09:16:43;;;;;;;;;;;3.50;99.90;;;;;;5015036;28;19909;-74
2023/12/03 09:19:09;;;;;;;;;;;3.60;99.90;;;;;;5014975;28;19913;-76
2023/12/03 09:21:34;;;;;;;;;;;3.60;99.90;;;;;;5011012;28;19913;-77
2023/12/03 09:24:00;;;;;;;;;;;3.60;99.90;;;;;;5001029;28;19914;-77
2023/12/03 09:26:25;;;;;;;;;;;3.80;99.90;;;;;;4995305;28;19921;-75
2023/12/03 09:28:51;;;;;;;;;;;3.80;99.90;;;;;;5010429;28;19921;-75
2023/12/03 09:31:16;;;;;;;;;;;3.90;99.90;;;;;;5015009;28;19910;-76
2023/12/03 09:33:42;;;;;;;;;;;3.90;99.90;;;;;;4999647;28;19929;-76
2023/12/03 09:36:08;;;;;;;;;;;3.90;99.90;;;;;;4995365;28;20432;-77
2023/12/03 09:38:35;;;;;;;;;;;3.90;99.90;;;;;;4995491;28;19914;-76
2023/12/03 09:41:04;;;;;;;;;;;4.00;99.90;;;;;;4995105;28;19910;-75
2023/12/03 09:43:30;;;;;;;;;;;4.10;99.90;;;;;;4995545;28;20104;-75
2023/12/03 09:45:56;;;;;;;;;;;4.10;99.90;;;;;;4994947;28;20449;-76
2023/12/03 09:48:22;;;;;;;;;;;4.20;99.90;;;;;;5006247;28;20294;-76
2023/12/03 09:50:49;;;;;;;;;;;4.30;99.90;;;;;;4998292;28;19914;-76
2023/12/03 09:53:15;;;;;;;;;;;4.40;99.90;;;;;;4995019;28;19917;-75
2023/12/03 09:55:41;;;;;;;;;;;4.40;99.90;;;;;;5002245;28;20359;-74
2023/12/03 09:58:10;;;;;;;;;;;4.50;99.90;;;;;;5029507;28;19909;-76
2023/12/03 10:00:37;;;;;;;;;;;4.50;99.90;;;;;;5013061;28;19910;-77
2023/12/03 10:03:04;;;;;;;;;;;4.70;99.90;;;;;;5004521;28;19996;-77
2023/12/03 10:05:30;;;;;;;;;;;4.70;99.90;;;;;;5014498;28;19975;-75
2023/12/03 10:07:56;;;;;;;;;;;4.80;99.90;;;;;;5010266;28;20439;-75
2023/12/03 10:10:24;;;;;;;;;;;4.90;99.90;;;;;;4994439;28;19921;-75
2023/12/03 10:12:51;;;;;;;;;;;5.00;99.90;;;;;;5020071;28;19910;-76
2023/12/03 10:15:17;;;;;;;;;;;5.20;99.90;;;;;;5012874;28;20019;-76
2023/12/03 10:17:43;;;;;;;;;;;5.20;99.90;;;;;;5014369;28;19964;-76
2023/12/03 10:20:20;;;;;;;;;;;5.20;99.90;;;;;;5013818;28;19918;-75
2023/12/03 10:22:46;;;;;;;;;;;5.30;99.90;;;;;;5010385;28;20057;-75
2023/12/03 10:25:24;;;;;;;;;;;5.50;99.90;;;;;;5009529;28;20364;-76
2023/12/03 10:27:51;;;;;;;;;;;5.60;99.90;;;;;;5000845;28;19910;-76
2023/12/03 10:30:17;;;;;;;;;;;5.70;99.90;;;;;;5029025;28;19909;-76
2023/12/03 10:32:42;;;;;;;;;;;5.70;99.90;;;;;;5007414;28;19922;-75
2023/12/03 10:35:09;;;;;;;;;;;5.90;99.90;;;;;;4994171;28;19914;-75
2023/12/03 10:37:34;;;;;;;;;;;6.00;99.90;;;;;;5002786;28;19910;-76
2023/12/03 10:40:00;;;;;;;;;;;6.00;99.90;;;;;;4994396;28;19910;-76
2023/12/03 10:42:26;;;;;;;;;;;6.10;99.90;;;;;;5009088;28;19996;-76
2023/12/03 10:44:51;;;;;;;;;;;6.20;99.90;;;;;;4994078;28;19913;-76
2023/12/03 10:47:17;;;;;;;;;;;6.20;99.90;;;;;;4994078;28;20289;-75
2023/12/03 10:49:44;;;;;;;;;;;6.30;99.90;;;;;;4997525;28;19917;-77
2023/12/03 10:52:09;;;;;;;;;;;6.40;99.90;;;;;;5002517;28;20376;-76
2023/12/03 10:54:35;;;;;;;;;;;6.50;99.90;;;;;;5009097;28;19964;-77
2023/12/03 10:57:01;;;;;;;;;;;6.50;99.90;;;;;;5009690;28;19913;-76
2023/12/03 10:59:27;;;;;;;;;;;6.60;99.90;;;;;;5013557;28;19909;-75
2023/12/03 11:01:54;;;;;;;;;;;6.60;99.90;;;;;;5013694;28;19916;-75
2023/12/03 11:04:39;;;;;;;;;;;6.80;99.90;;;;;;5011859;28;20327;-77
2023/12/03 11:07:07;;;;;;;;;;;6.90;99.90;;;;;;5013469;28;19914;-77
2023/12/03 11:09:34;;;;;;;;;;;7.10;99.90;;;;;;5013543;28;19917;-77
2023/12/03 11:11:59;;;;;;;;;;;7.10;99.90;;;;;;5013325;28;19910;-75
2023/12/03 11:14:25;;;;;;;;;;;7.30;99.90;;;;;;5013565;28;19918;-75
2023/12/03 11:17:06;;;;;;;;;;;7.40;99.90;;;;;;5013483;28;20045;-76
2023/12/03 11:19:32;;;;;;;;;;;7.60;99.90;;;;;;5013166;28;20512;-77
2023/12/03 11:22:07;;;;;;;;;;;7.70;99.90;;;;;;5010931;28;19913;-77
2023/12/03 11:24:48;;;;;;;;;;;7.60;99.90;;;;;;4993627;28;19916;-76
2023/12/03 11:27:15;;;;;;;;;;;7.70;99.90;;;;;;4996423;28;19917;-75
2023/12/03 11:29:51;;;;;;;;;;;7.60;99.90;;;;;;5012625;28;19909;-77
2023/12/03 11:32:17;;;;;;;;;;;7.60;99.90;;;;;;5010519;28;20503;-77
2023/12/03 11:34:43;;;;;;;;;;;7.70;99.90;;;;;;4993538;28;19914;-78
2023/12/03 11:37:09;;;;;;;;;;;7.70;99.90;;;;;;4993446;28;19964;-75
2023/12/03 11:39:41;;;;;;;;;;;7.80;99.90;;;;;;4993628;28;19910;-77
2023/12/03 11:42:08;;;;;;;;;;;7.80;99.90;;;;;;4993504;28;19910;-77
2023/12/03 11:44:34;;;;;;;;;;;7.90;99.90;;;;;;4993503;28;19916;-76
2023/12/03 11:47:03;;;;;;;;;;;8.10;99.90;;;;;;4993605;28;19917;-77
2023/12/03 11:49:29;;;;;;;;;;;8.20;99.90;;;;;;4997226;28;20015;-75
2023/12/03 11:51:55;;;;;;;;;;;8.30;99.90;;;;;;5002171;28;20380;-75
2023/12/03 11:54:24;;;;;;;;;;;8.50;99.90;;;;;;4993223;28;20377;-76
2023/12/03 11:56:50;;;;;;;;;;;8.50;99.90;;;;;;5010017;28;20324;-76
2023/12/03 11:59:15;;;;;;;;;;;8.60;99.90;;;;;;5016675;28;19910;-76
2023/12/03 12:01:41;;;;;;;;;;;8.40;99.90;;;;;;5016906;28;19913;-77
2023/12/03 12:04:06;;;;;;;;;;;8.40;99.90;;;;;;5016322;28;19916;-75
2023/12/03 12:06:33;;;;;;;;;;;8.50;99.90;;;;;;5017017;28;19916;-75
2023/12/03 12:08:59;;;;;;;;;;;8.20;99.90;;;;;;5016610;28;19913;-76
2023/12/03 12:11:24;;;;;;;;;;;8.20;99.90;;;;;;5016515;28;19918;-76
2023/12/03 12:13:50;;;;;;;;;;;8.20;99.90;;;;;;4997899;28;20364;-76
2023/12/03 12:16:16;;;;;;;;;;;8.20;99.90;;;;;;4996940;28;20385;-75
2023/12/03 12:18:41;;;;;;;;;;;8.00;99.90;;;;;;5007270;28;19940;-75
2023/12/03 12:21:10;;;;;;;;;;;7.90;99.90;;;;;;5013080;28;19924;-77
2023/12/03 12:23:35;;;;;;;;;;;8.00;99.90;;;;;;5017977;28;19984;-76
2023/12/03 12:26:01;;;;;;;;;;;8.00;99.90;;;;;;4996851;28;19964;-76
2023/12/03 12:28:26;;;;;;;;;;;8.10;99.90;;;;;;5008580;28;19920;-75
2023/12/03 12:30:54;;;;;;;;;;;8.30;99.90;;;;;;5016109;28;19909;-75
2023/12/03 12:33:19;;;;;;;;;;;8.50;99.90;;;;;;5004867;28;19922;-76
2023/12/03 12:35:48;;;;;;;;;;;8.40;99.90;;;;;;4996574;28;19968;-77
2023/12/03 12:38:14;;;;;;;;;;;8.40;99.90;;;;;;4996434;28;20002;-77
2023/12/03 12:40:50;;;;;;;;;;;8.40;99.90;;;;;;4996768;28;20434;-77
2023/12/03 12:43:17;;;;;;;;;;;8.50;99.90;;;;;;5006569;28;20364;-75
2023/12/03 12:45:42;;;;;;;;;;;8.50;99.90;;;;;;5015748;28;19909;-75
2023/12/03 12:48:25;;;;;;;;;;;8.50;99.90;;;;;;5015574;28;19913;-77
2023/12/03 12:50:50;;;;;;;;;;;8.30;99.90;;;;;;5008221;28;19936;-77
2023/12/03 12:53:16;;;;;;;;;;;8.30;99.90;;;;;;5014869;28;20365;-77
2023/12/03 12:55:42;;;;;;;;;;;8.30;99.90;;;;;;5027664;28;20344;-75
2023/12/03 12:58:08;;;;;;;;;;;8.20;99.90;;;;;;4995825;28;19910;-76
2023/12/03 13:00:34;;;;;;;;;;;8.30;99.90;;;;;;4996201;28;20292;-77
2023/12/03 13:03:00;;;;;;;;;;;8.20;99.90;;;;;;4996737;28;19937;-77
2023/12/03 13:05:26;;;;;;;;;;;8.30;99.90;;;;;;5014965;28;20368;-78
2023/12/03 13:07:52;;;;;;;;;;;8.30;99.90;;;;;;5015261;28;19943;-76
2023/12/03 13:10:17;;;;;;;;;;;8.30;99.90;;;;;;5015073;28;19910;-75
2023/12/03 13:12:46;;;;;;;;;;;8.30;99.90;;;;;;5015369;28;20364;-76
2023/12/03 13:15:12;;;;;;;;;;;8.30;99.90;;;;;;5015159;28;20485;-78
2023/12/03 13:17:51;;;;;;;;;;;8.30;99.90;;;;;;5015032;28;19914;-76
2023/12/03 13:20:17;;;;;;;;;;;8.40;99.90;;;;;;5015012;28;20380;-75
2023/12/03 13:22:44;;;;;;;;;;;8.40;99.90;;;;;;5003507;28;20000;-75
2023/12/03 13:25:09;;;;;;;;;;;8.60;99.90;;;;;;4995443;28;19917;-76
2023/12/03 13:27:35;;;;;;;;;;;8.60;99.90;;;;;;4995733;28;19913;-76
2023/12/03 13:30:00;;;;;;;;;;;8.70;99.90;;;;;;4995291;28;20293;-77
2023/12/03 13:32:26;;;;;;;;;;;8.70;99.90;;;;;;4998575;28;19961;-76
2023/12/03 13:34:51;;;;;;;;;;;8.70;99.90;;;;;;5029724;28;19925;-74
2023/12/03 13:37:19;;;;;;;;;;;8.70;99.90;;;;;;5013708;28;21364;-75
2023/12/03 13:39:44;;;;;;;;;;;8.60;99.90;;;;;;5015204;28;20016;-77
2023/12/03 13:42:10;;;;;;;;;;;8.40;99.90;;;;;;5014819;28;19964;-77
2023/12/03 13:44:35;;;;;;;;;;;8.30;99.90;;;;;;5013668;28;19960;-77
2023/12/03 13:47:01;;;;;;;;;;;8.30;99.90;;;;;;4995290;28;19937;-75
2023/12/03 13:49:27;;;;;;;;;;;8.30;99.90;;;;;;4998333;28;20387;-75
2023/12/03 13:51:54;;;;;;;;;;;8.30;99.90;;;;;;5003712;28;19910;-76
2023/12/03 13:54:20;;;;;;;;;;;8.20;99.90;;;;;;5010532;28;19919;-76
2023/12/03 13:56:45;;;;;;;;;;;8.20;99.90;;;;;;5014116;28;20004;-77
2023/12/03 13:59:11;;;;;;;;;;;8.20;99.90;;;;;;5014398;28;19968;-77
2023/12/03 14:01:36;;;;;;;;;;;8.20;99.90;;;;;;5014586;28;19909;-75
2023/12/03 14:04:02;;;;;;;;;;;8.20;99.90;;;;;;5014391;28;19914;-75
2023/12/03 14:06:27;;;;;;;;;;;8.10;99.90;;;;;;5014206;28;19920;-77
2023/12/03 14:08:53;;;;;;;;;;;8.10;99.90;;;;;;5014191;28;19917;-77
2023/12/03 14:11:18;;;;;;;;;;;8.00;99.90;;;;;;5014368;28;20319;-77
2023/12/03 14:13:44;;;;;;;;;;;8.00;99.90;;;;;;4996455;28;19957;-75
2023/12/03 14:16:09;;;;;;;;;;;7.90;99.90;;;;;;4994358;28;20005;-75
2023/12/03 14:18:35;;;;;;;;;;;7.90;99.90;;;;;;5003198;28;19964;-76
2023/12/03 14:21:00;;;;;;;;;;;7.80;99.90;;;;;;5011698;28;19963;-77
2023/12/03 14:23:28;;;;;;;;;;;7.80;99.90;;;;;;5016928;28;20347;-77